sensor_id;sensor_type;location;lat;lon;timestamp;P1;durP1;ratioP1;P2;durP2;ratioP2
23117;SDS011;11728;50.624;6.014;2022-09-06T00:00:47;8.48;;;4.07;;
23117;SDS011;11728;50.624;6.014;2022-09-06T00:05:48;6.05;;;3.55;;
23117;SDS011;11728;50.624;6.014;2022-09-06T00:10:55;6.07;;;3.10;;
23117;SDS011;11728;50.624;6.014;2022-09-06T00:16:03;8.68;;;3.30;;
23117;SDS011;11728;50.624;6.014;2022-09-06T00:21:18;7.10;;;3.55;;
23117;SDS011;11728;50.624;6.014;2022-09-06T00:26:23;6.15;;;3.53;;
23117;SDS011;11728;50.624;6.014;2022-09-06T00:31:24;9.48;;;3.40;;
23117;SDS011;11728;50.624;6.014;2022-09-06T00:36:26;7.15;;;3.70;;
23117;SDS011;11728;50.624;6.014;2022-09-06T00:41:26;5.50;;;3.67;;
23117;SDS011;11728;50.624;6.014;2022-09-06T00:46:28;6.82;;;3.72;;
23117;SDS011;11728;50.624;6.014;2022-09-06T00:51:30;6.22;;;3.47;;
23117;SDS011;11728;50.624;6.014;2022-09-06T00:56:33;8.00;;;3.75;;
23117;SDS011;11728;50.624;6.014;2022-09-06T01:01:37;6.53;;;4.00;;
23117;SDS011;11728;50.624;6.014;2022-09-06T01:06:47;6.55;;;3.35;;
23117;SDS011;11728;50.624;6.014;2022-09-06T01:17:47;8.00;;;3.78;;
23117;SDS011;11728;50.624;6.014;2022-09-06T01:33:23;13.80;;;5.27;;
23117;SDS011;11728;50.624;6.014;2022-09-06T01:38:40;15.48;;;5.47;;
23117;SDS011;11728;50.624;6.014;2022-09-06T01:43:41;15.90;;;6.15;;
23117;SDS011;11728;50.624;6.014;2022-09-06T01:59:29;11.32;;;5.22;;
23117;SDS011;11728;50.624;6.014;2022-09-06T02:04:55;11.07;;;5.68;;
23117;SDS011;11728;50.624;6.014;2022-09-06T02:16:23;10.10;;;4.53;;
23117;SDS011;11728;50.624;6.014;2022-09-06T02:21:05;10.40;;;4.65;;
23117;SDS011;11728;50.624;6.014;2022-09-06T02:26:07;17.20;;;5.07;;
23117;SDS011;11728;50.624;6.014;2022-09-06T02:31:13;4.78;;;3.35;;
23117;SDS011;11728;50.624;6.014;2022-09-06T02:36:19;4.68;;;3.70;;
23117;SDS011;11728;50.624;6.014;2022-09-06T02:41:20;9.40;;;4.25;;
23117;SDS011;11728;50.624;6.014;2022-09-06T02:46:23;5.75;;;3.38;;
23117;SDS011;11728;50.624;6.014;2022-09-06T02:51:24;7.22;;;3.22;;
23117;SDS011;11728;50.624;6.014;2022-09-06T02:56:24;5.95;;;2.88;;
23117;SDS011;11728;50.624;6.014;2022-09-06T03:01:25;5.65;;;2.35;;
23117;SDS011;11728;50.624;6.014;2022-09-06T03:06:26;4.18;;;2.25;;
23117;SDS011;11728;50.624;6.014;2022-09-06T03:11:26;4.90;;;2.63;;
23117;SDS011;11728;50.624;6.014;2022-09-06T03:16:27;4.28;;;2.22;;
23117;SDS011;11728;50.624;6.014;2022-09-06T03:21:27;3.90;;;2.05;;
23117;SDS011;11728;50.624;6.014;2022-09-06T03:26:28;4.30;;;1.80;;
23117;SDS011;11728;50.624;6.014;2022-09-06T03:31:29;3.15;;;2.20;;
23117;SDS011;11728;50.624;6.014;2022-09-06T03:36:30;6.55;;;1.92;;
23117;SDS011;11728;50.624;6.014;2022-09-06T03:41:30;4.43;;;2.20;;
23117;SDS011;11728;50.624;6.014;2022-09-06T03:46:31;4.00;;;1.90;;
23117;SDS011;11728;50.624;6.014;2022-09-06T03:51:31;2.25;;;1.50;;
23117;SDS011;11728;50.624;6.014;2022-09-06T03:56:32;4.75;;;1.13;;
23117;SDS011;11728;50.624;6.014;2022-09-06T04:01:32;2.05;;;1.10;;
23117;SDS011;11728;50.624;6.014;2022-09-06T04:06:33;5.30;;;1.30;;
23117;SDS011;11728;50.624;6.014;2022-09-06T04:11:33;3.20;;;1.45;;
23117;SDS011;11728;50.624;6.014;2022-09-06T04:16:34;5.18;;;1.42;;
23117;SDS011;11728;50.624;6.014;2022-09-06T04:21:34;3.80;;;1.98;;
23117;SDS011;11728;50.624;6.014;2022-09-06T04:26:35;3.30;;;1.83;;
23117;SDS011;11728;50.624;6.014;2022-09-06T04:31:35;4.40;;;1.80;;
23117;SDS011;11728;50.624;6.014;2022-09-06T04:36:36;7.20;;;1.70;;
23117;SDS011;11728;50.624;6.014;2022-09-06T04:41:36;2.92;;;1.40;;
23117;SDS011;11728;50.624;6.014;2022-09-06T04:46:39;2.10;;;1.63;;
23117;SDS011;11728;50.624;6.014;2022-09-06T04:51:41;4.85;;;1.40;;
23117;SDS011;11728;50.624;6.014;2022-09-06T04:56:41;4.30;;;1.90;;
23117;SDS011;11728;50.624;6.014;2022-09-06T05:01:42;4.38;;;1.95;;
23117;SDS011;11728;50.624;6.014;2022-09-06T05:06:42;2.50;;;1.75;;
23117;SDS011;11728;50.624;6.014;2022-09-06T05:11:43;4.40;;;2.47;;
23117;SDS011;11728;50.624;6.014;2022-09-06T05:16:43;3.33;;;1.92;;
23117;SDS011;11728;50.624;6.014;2022-09-06T05:21:45;2.67;;;1.90;;
23117;SDS011;11728;50.624;6.014;2022-09-06T05:26:46;3.58;;;2.03;;
23117;SDS011;11728;50.624;6.014;2022-09-06T05:31:46;4.53;;;1.58;;
23117;SDS011;11728;50.624;6.014;2022-09-06T05:36:47;5.10;;;1.85;;
23117;SDS011;11728;50.624;6.014;2022-09-06T05:41:47;4.15;;;1.67;;
23117;SDS011;11728;50.624;6.014;2022-09-06T05:46:48;3.15;;;1.60;;
23117;SDS011;11728;50.624;6.014;2022-09-06T05:51:49;2.92;;;1.30;;
23117;SDS011;11728;50.624;6.014;2022-09-06T05:56:51;2.13;;;1.00;;
23117;SDS011;11728;50.624;6.014;2022-09-06T06:01:51;2.60;;;0.70;;
23117;SDS011;11728;50.624;6.014;2022-09-06T06:06:53;3.53;;;0.95;;
23117;SDS011;11728;50.624;6.014;2022-09-06T06:11:53;2.22;;;0.63;;
23117;SDS011;11728;50.624;6.014;2022-09-06T06:16:54;1.95;;;0.75;;
23117;SDS011;11728;50.624;6.014;2022-09-06T06:21:54;2.75;;;0.70;;
23117;SDS011;11728;50.624;6.014;2022-09-06T06:26:55;1.73;;;0.70;;
23117;SDS011;11728;50.624;6.014;2022-09-06T06:31:55;6.38;;;0.70;;
23117;SDS011;11728;50.624;6.014;2022-09-06T06:36:56;2.90;;;0.63;;
23117;SDS011;11728;50.624;6.014;2022-09-06T06:41:57;1.70;;;0.63;;
23117;SDS011;11728;50.624;6.014;2022-09-06T06:47:04;1.88;;;0.70;;
23117;SDS011;11728;50.624;6.014;2022-09-06T06:52:06;1.45;;;0.60;;
23117;SDS011;11728;50.624;6.014;2022-09-06T06:57:06;1.38;;;0.52;;
23117;SDS011;11728;50.624;6.014;2022-09-06T07:02:08;2.30;;;0.70;;
23117;SDS011;11728;50.624;6.014;2022-09-06T07:07:09;5.95;;;1.15;;
23117;SDS011;11728;50.624;6.014;2022-09-06T07:12:09;1.92;;;0.82;;
23117;SDS011;11728;50.624;6.014;2022-09-06T07:17:10;1.45;;;0.70;;
23117;SDS011;11728;50.624;6.014;2022-09-06T07:22:10;3.30;;;1.00;;
23117;SDS011;11728;50.624;6.014;2022-09-06T07:27:10;3.05;;;0.70;;
23117;SDS011;11728;50.624;6.014;2022-09-06T07:32:11;3.22;;;0.80;;
23117;SDS011;11728;50.624;6.014;2022-09-06T07:37:12;2.17;;;0.77;;
23117;SDS011;11728;50.624;6.014;2022-09-06T07:42:12;1.73;;;0.80;;
23117;SDS011;11728;50.624;6.014;2022-09-06T07:47:13;3.40;;;0.90;;
23117;SDS011;11728;50.624;6.014;2022-09-06T07:52:14;1.67;;;0.90;;
23117;SDS011;11728;50.624;6.014;2022-09-06T07:57:15;2.20;;;0.90;;
23117;SDS011;11728;50.624;6.014;2022-09-06T08:02:15;2.28;;;0.80;;
23117;SDS011;11728;50.624;6.014;2022-09-06T08:07:16;2.88;;;0.80;;
23117;SDS011;11728;50.624;6.014;2022-09-06T08:12:17;2.97;;;0.80;;
23117;SDS011;11728;50.624;6.014;2022-09-06T08:17:18;2.20;;;0.80;;
23117;SDS011;11728;50.624;6.014;2022-09-06T08:22:19;3.60;;;0.90;;
23117;SDS011;11728;50.624;6.014;2022-09-06T08:27:19;3.17;;;0.70;;
23117;SDS011;11728;50.624;6.014;2022-09-06T08:32:20;2.63;;;0.83;;
23117;SDS011;11728;50.624;6.014;2022-09-06T08:37:20;3.65;;;0.68;;
23117;SDS011;11728;50.624;6.014;2022-09-06T08:42:21;4.03;;;0.70;;
23117;SDS011;11728;50.624;6.014;2022-09-06T08:47:21;2.50;;;0.93;;
23117;SDS011;11728;50.624;6.014;2022-09-06T08:52:24;3.08;;;0.90;;
23117;SDS011;11728;50.624;6.014;2022-09-06T08:57:39;2.13;;;0.70;;
23117;SDS011;11728;50.624;6.014;2022-09-06T09:03:08;2.83;;;0.82;;
23117;SDS011;11728;50.624;6.014;2022-09-06T09:08:21;3.55;;;0.85;;
23117;SDS011;11728;50.624;6.014;2022-09-06T09:13:26;3.13;;;0.82;;
23117;SDS011;11728;50.624;6.014;2022-09-06T09:18:35;5.40;;;1.02;;
23117;SDS011;11728;50.624;6.014;2022-09-06T09:23:39;3.20;;;1.10;;
23117;SDS011;11728;50.624;6.014;2022-09-06T09:29:00;1.95;;;0.90;;
23117;SDS011;11728;50.624;6.014;2022-09-06T09:34:10;5.13;;;1.10;;
23117;SDS011;11728;50.624;6.014;2022-09-06T09:39:12;3.55;;;1.20;;
23117;SDS011;11728;50.624;6.014;2022-09-06T09:44:16;2.73;;;1.00;;
23117;SDS011;11728;50.624;6.014;2022-09-06T09:54:30;5.97;;;1.17;;
23117;SDS011;11728;50.624;6.014;2022-09-06T09:59:41;4.43;;;1.10;;
23117;SDS011;11728;50.624;6.014;2022-09-06T10:04:48;3.92;;;0.95;;
23117;SDS011;11728;50.624;6.014;2022-09-06T10:10:02;5.05;;;1.17;;
23117;SDS011;11728;50.624;6.014;2022-09-06T10:15:10;1.77;;;0.90;;
23117;SDS011;11728;50.624;6.014;2022-09-06T10:20:11;3.97;;;0.90;;
23117;SDS011;11728;50.624;6.014;2022-09-06T10:25:17;4.40;;;1.10;;
23117;SDS011;11728;50.624;6.014;2022-09-06T10:30:37;3.15;;;0.80;;
23117;SDS011;11728;50.624;6.014;2022-09-06T10:35:42;3.67;;;0.98;;
23117;SDS011;11728;50.624;6.014;2022-09-06T10:40:50;4.70;;;1.10;;
23117;SDS011;11728;50.624;6.014;2022-09-06T10:45:58;3.45;;;1.10;;
23117;SDS011;11728;50.624;6.014;2022-09-06T11:01:55;2.50;;;0.80;;
23117;SDS011;11728;50.624;6.014;2022-09-06T11:07:52;2.80;;;0.82;;
23117;SDS011;11728;50.624;6.014;2022-09-06T11:12:59;2.92;;;0.80;;
23117;SDS011;11728;50.624;6.014;2022-09-06T11:18:08;1.52;;;0.60;;
23117;SDS011;11728;50.624;6.014;2022-09-06T11:28:53;1.52;;;0.70;;
23117;SDS011;11728;50.624;6.014;2022-09-06T11:34:08;0.90;;;0.50;;
23117;SDS011;11728;50.624;6.014;2022-09-06T11:49:49;2.22;;;0.73;;
23117;SDS011;11728;50.624;6.014;2022-09-06T11:54:49;2.20;;;0.80;;
23117;SDS011;11728;50.624;6.014;2022-09-06T11:59:57;1.67;;;0.50;;
23117;SDS011;11728;50.624;6.014;2022-09-06T12:15:29;1.50;;;0.82;;
23117;SDS011;11728;50.624;6.014;2022-09-06T12:25:51;1.47;;;0.67;;
23117;SDS011;11728;50.624;6.014;2022-09-06T12:30:53;2.22;;;0.80;;
23117;SDS011;11728;50.624;6.014;2022-09-06T12:41:17;2.67;;;0.85;;
23117;SDS011;11728;50.624;6.014;2022-09-06T12:46:18;3.30;;;1.10;;
23117;SDS011;11728;50.624;6.014;2022-09-06T12:51:19;2.40;;;1.10;;
23117;SDS011;11728;50.624;6.014;2022-09-06T12:56:21;2.72;;;0.90;;
23117;SDS011;11728;50.624;6.014;2022-09-06T13:01:25;3.13;;;0.95;;
23117;SDS011;11728;50.624;6.014;2022-09-06T13:06:32;2.97;;;0.88;;
23117;SDS011;11728;50.624;6.014;2022-09-06T13:11:41;1.67;;;0.80;;
23117;SDS011;11728;50.624;6.014;2022-09-06T13:16:45;1.88;;;0.70;;
23117;SDS011;11728;50.624;6.014;2022-09-06T13:21:47;5.60;;;1.17;;
23117;SDS011;11728;50.624;6.014;2022-09-06T13:26:48;4.53;;;0.85;;
23117;SDS011;11728;50.624;6.014;2022-09-06T13:31:50;2.45;;;1.00;;
23117;SDS011;11728;50.624;6.014;2022-09-06T13:37:00;5.13;;;0.70;;
23117;SDS011;11728;50.624;6.014;2022-09-06T13:42:10;2.85;;;1.00;;
23117;SDS011;11728;50.624;6.014;2022-09-06T13:47:26;2.50;;;0.70;;
23117;SDS011;11728;50.624;6.014;2022-09-06T13:52:28;2.22;;;0.85;;
23117;SDS011;11728;50.624;6.014;2022-09-06T13:57:28;1.73;;;0.70;;
23117;SDS011;11728;50.624;6.014;2022-09-06T14:02:28;2.37;;;0.70;;
23117;SDS011;11728;50.624;6.014;2022-09-06T14:07:29;5.87;;;0.90;;
23117;SDS011;11728;50.624;6.014;2022-09-06T14:12:29;2.27;;;0.90;;
23117;SDS011;11728;50.624;6.014;2022-09-06T14:17:30;3.83;;;0.87;;
23117;SDS011;11728;50.624;6.014;2022-09-06T14:22:32;2.78;;;1.13;;
23117;SDS011;11728;50.624;6.014;2022-09-06T14:27:32;3.50;;;0.77;;
23117;SDS011;11728;50.624;6.014;2022-09-06T14:32:34;1.63;;;0.82;;
23117;SDS011;11728;50.624;6.014;2022-09-06T14:37:34;3.10;;;0.80;;
23117;SDS011;11728;50.624;6.014;2022-09-06T14:42:35;1.38;;;0.70;;
23117;SDS011;11728;50.624;6.014;2022-09-06T14:47:36;4.40;;;0.82;;
23117;SDS011;11728;50.624;6.014;2022-09-06T14:52:36;2.13;;;0.83;;
23117;SDS011;11728;50.624;6.014;2022-09-06T14:57:37;2.80;;;1.10;;
23117;SDS011;11728;50.624;6.014;2022-09-06T15:02:37;5.82;;;0.73;;
23117;SDS011;11728;50.624;6.014;2022-09-06T15:07:38;2.35;;;0.90;;
23117;SDS011;11728;50.624;6.014;2022-09-06T15:12:39;4.33;;;0.90;;
23117;SDS011;11728;50.624;6.014;2022-09-06T15:17:39;2.00;;;0.90;;
23117;SDS011;11728;50.624;6.014;2022-09-06T15:22:40;3.33;;;0.93;;
23117;SDS011;11728;50.624;6.014;2022-09-06T15:27:41;2.30;;;1.00;;
23117;SDS011;11728;50.624;6.014;2022-09-06T15:32:41;3.13;;;0.70;;
23117;SDS011;11728;50.624;6.014;2022-09-06T15:37:42;4.32;;;1.00;;
23117;SDS011;11728;50.624;6.014;2022-09-06T15:42:44;4.00;;;0.90;;
23117;SDS011;11728;50.624;6.014;2022-09-06T15:47:44;2.47;;;1.20;;
23117;SDS011;11728;50.624;6.014;2022-09-06T15:52:45;4.40;;;0.95;;
23117;SDS011;11728;50.624;6.014;2022-09-06T15:57:46;3.38;;;1.00;;
23117;SDS011;11728;50.624;6.014;2022-09-06T16:02:46;3.03;;;0.80;;
23117;SDS011;11728;50.624;6.014;2022-09-06T16:07:47;3.15;;;0.90;;
23117;SDS011;11728;50.624;6.014;2022-09-06T16:12:49;3.67;;;1.10;;
23117;SDS011;11728;50.624;6.014;2022-09-06T16:17:50;2.70;;;0.90;;
23117;SDS011;11728;50.624;6.014;2022-09-06T16:22:51;3.05;;;1.10;;
23117;SDS011;11728;50.624;6.014;2022-09-06T16:27:52;4.28;;;0.63;;
23117;SDS011;11728;50.624;6.014;2022-09-06T16:32:52;2.40;;;0.65;;
23117;SDS011;11728;50.624;6.014;2022-09-06T16:37:53;4.03;;;0.77;;
23117;SDS011;11728;50.624;6.014;2022-09-06T16:42:53;3.08;;;0.70;;
23117;SDS011;11728;50.624;6.014;2022-09-06T16:47:54;3.05;;;0.90;;
23117;SDS011;11728;50.624;6.014;2022-09-06T16:52:55;4.05;;;1.33;;
23117;SDS011;11728;50.624;6.014;2022-09-06T16:57:55;1.70;;;0.70;;
23117;SDS011;11728;50.624;6.014;2022-09-06T17:02:56;3.20;;;0.77;;
23117;SDS011;11728;50.624;6.014;2022-09-06T17:07:58;2.53;;;0.85;;
23117;SDS011;11728;50.624;6.014;2022-09-06T17:12:58;1.88;;;0.90;;
23117;SDS011;11728;50.624;6.014;2022-09-06T17:17:59;2.13;;;0.80;;
23117;SDS011;11728;50.624;6.014;2022-09-06T17:23:01;3.88;;;0.90;;
23117;SDS011;11728;50.624;6.014;2022-09-06T17:28:01;1.65;;;0.82;;
23117;SDS011;11728;50.624;6.014;2022-09-06T17:33:02;3.83;;;0.88;;
23117;SDS011;11728;50.624;6.014;2022-09-06T17:38:04;2.55;;;0.93;;
23117;SDS011;11728;50.624;6.014;2022-09-06T17:43:04;4.18;;;1.35;;
23117;SDS011;11728;50.624;6.014;2022-09-06T17:48:05;4.88;;;1.10;;
23117;SDS011;11728;50.624;6.014;2022-09-06T17:53:06;3.40;;;0.90;;
23117;SDS011;11728;50.624;6.014;2022-09-06T17:58:06;7.53;;;1.10;;
23117;SDS011;11728;50.624;6.014;2022-09-06T18:03:07;2.95;;;0.85;;
23117;SDS011;11728;50.624;6.014;2022-09-06T18:08:08;3.78;;;1.35;;
23117;SDS011;11728;50.624;6.014;2022-09-06T18:13:09;2.50;;;1.30;;
23117;SDS011;11728;50.624;6.014;2022-09-06T18:18:10;3.58;;;1.45;;
23117;SDS011;11728;50.624;6.014;2022-09-06T18:23:10;6.28;;;1.70;;
23117;SDS011;11728;50.624;6.014;2022-09-06T18:28:11;3.40;;;1.65;;
23117;SDS011;11728;50.624;6.014;2022-09-06T18:33:11;8.90;;;1.70;;
23117;SDS011;11728;50.624;6.014;2022-09-06T18:38:13;5.00;;;1.65;;
23117;SDS011;11728;50.624;6.014;2022-09-06T18:43:13;4.35;;;1.77;;
23117;SDS011;11728;50.624;6.014;2022-09-06T18:48:14;5.13;;;1.80;;
23117;SDS011;11728;50.624;6.014;2022-09-06T18:53:15;4.72;;;1.45;;
23117;SDS011;11728;50.624;6.014;2022-09-06T18:58:17;2.97;;;1.48;;
23117;SDS011;11728;50.624;6.014;2022-09-06T19:03:17;3.45;;;1.70;;
23117;SDS011;11728;50.624;6.014;2022-09-06T19:08:18;3.05;;;1.05;;
23117;SDS011;11728;50.624;6.014;2022-09-06T19:13:19;5.53;;;1.90;;
23117;SDS011;11728;50.624;6.014;2022-09-06T19:18:19;6.50;;;1.70;;
23117;SDS011;11728;50.624;6.014;2022-09-06T19:23:22;3.45;;;1.77;;
23117;SDS011;11728;50.624;6.014;2022-09-06T19:28:23;3.83;;;1.52;;
23117;SDS011;11728;50.624;6.014;2022-09-06T19:33:24;3.50;;;1.60;;
23117;SDS011;11728;50.624;6.014;2022-09-06T19:38:24;2.78;;;1.40;;
23117;SDS011;11728;50.624;6.014;2022-09-06T19:43:25;3.75;;;1.27;;
23117;SDS011;11728;50.624;6.014;2022-09-06T19:48:26;3.20;;;1.30;;
23117;SDS011;11728;50.624;6.014;2022-09-06T19:53:27;3.33;;;1.50;;
23117;SDS011;11728;50.624;6.014;2022-09-06T19:58:29;2.53;;;1.27;;
23117;SDS011;11728;50.624;6.014;2022-09-06T20:03:30;4.93;;;1.40;;
23117;SDS011;11728;50.624;6.014;2022-09-06T20:08:31;3.40;;;1.45;;
23117;SDS011;11728;50.624;6.014;2022-09-06T20:13:35;3.08;;;1.25;;
23117;SDS011;11728;50.624;6.014;2022-09-06T20:18:40;5.32;;;1.23;;
23117;SDS011;11728;50.624;6.014;2022-09-06T20:23:40;3.13;;;1.35;;
23117;SDS011;11728;50.624;6.014;2022-09-06T20:28:41;4.47;;;1.80;;
23117;SDS011;11728;50.624;6.014;2022-09-06T20:33:43;2.83;;;1.20;;
23117;SDS011;11728;50.624;6.014;2022-09-06T20:38:44;3.30;;;1.17;;
23117;SDS011;11728;50.624;6.014;2022-09-06T20:43:56;3.40;;;1.30;;
23117;SDS011;11728;50.624;6.014;2022-09-06T20:48:58;3.85;;;1.50;;
23117;SDS011;11728;50.624;6.014;2022-09-06T20:54:03;3.92;;;1.30;;
23117;SDS011;11728;50.624;6.014;2022-09-06T20:59:05;2.00;;;0.90;;
23117;SDS011;11728;50.624;6.014;2022-09-06T21:04:11;3.72;;;1.35;;
23117;SDS011;11728;50.624;6.014;2022-09-06T21:09:13;3.70;;;1.40;;
23117;SDS011;11728;50.624;6.014;2022-09-06T21:14:14;2.83;;;1.08;;
23117;SDS011;11728;50.624;6.014;2022-09-06T21:19:14;5.53;;;1.70;;
23117;SDS011;11728;50.624;6.014;2022-09-06T21:24:15;5.78;;;1.52;;
23117;SDS011;11728;50.624;6.014;2022-09-06T21:29:16;8.82;;;2.03;;
23117;SDS011;11728;50.624;6.014;2022-09-06T21:34:16;5.63;;;2.33;;
23117;SDS011;11728;50.624;6.014;2022-09-06T21:39:17;9.90;;;2.45;;
23117;SDS011;11728;50.624;6.014;2022-09-06T21:44:17;5.90;;;2.50;;
23117;SDS011;11728;50.624;6.014;2022-09-06T21:49:18;8.15;;;1.95;;
23117;SDS011;11728;50.624;6.014;2022-09-06T21:54:18;4.70;;;1.80;;
23117;SDS011;11728;50.624;6.014;2022-09-06T21:59:19;5.35;;;1.88;;
23117;SDS011;11728;50.624;6.014;2022-09-06T22:04:20;5.32;;;2.13;;
23117;SDS011;11728;50.624;6.014;2022-09-06T22:09:20;4.25;;;1.70;;
23117;SDS011;11728;50.624;6.014;2022-09-06T22:14:21;8.43;;;1.30;;
23117;SDS011;11728;50.624;6.014;2022-09-06T22:19:21;10.07;;;1.50;;
23117;SDS011;11728;50.624;6.014;2022-09-06T22:24:22;3.03;;;0.98;;
23117;SDS011;11728;50.624;6.014;2022-09-06T22:29:22;5.47;;;1.15;;
23117;SDS011;11728;50.624;6.014;2022-09-06T22:34:23;4.28;;;1.00;;
23117;SDS011;11728;50.624;6.014;2022-09-06T22:39:23;5.90;;;1.00;;
23117;SDS011;11728;50.624;6.014;2022-09-06T22:44:24;4.13;;;1.23;;
23117;SDS011;11728;50.624;6.014;2022-09-06T22:49:25;3.13;;;1.10;;
23117;SDS011;11728;50.624;6.014;2022-09-06T22:54:25;4.20;;;1.08;;
23117;SDS011;11728;50.624;6.014;2022-09-06T22:59:26;2.83;;;1.08;;
23117;SDS011;11728;50.624;6.014;2022-09-06T23:04:26;2.75;;;1.15;;
23117;SDS011;11728;50.624;6.014;2022-09-06T23:09:27;6.82;;;1.40;;
23117;SDS011;11728;50.624;6.014;2022-09-06T23:14:27;3.25;;;1.08;;
23117;SDS011;11728;50.624;6.014;2022-09-06T23:19:28;2.95;;;0.90;;
23117;SDS011;11728;50.624;6.014;2022-09-06T23:24:28;6.97;;;1.10;;
23117;SDS011;11728;50.624;6.014;2022-09-06T23:29:29;5.22;;;1.00;;
23117;SDS011;11728;50.624;6.014;2022-09-06T23:34:30;4.22;;;1.20;;
23117;SDS011;11728;50.624;6.014;2022-09-06T23:39:31;6.45;;;1.30;;
23117;SDS011;11728;50.624;6.014;2022-09-06T23:44:31;3.25;;;1.23;;
23117;SDS011;11728;50.624;6.014;2022-09-06T23:49:32;3.25;;;0.95;;
23117;SDS011;11728;50.624;6.014;2022-09-06T23:54:32;3.50;;;1.52;;
23117;SDS011;11728;50.624;6.014;2022-09-06T23:59:33;2.47;;;1.30;;
